Time;durP1;ratioP1;P1;durP2;ratioP2;P2;SDS_P1;SDS_P2;PMS_P1;PMS_P2;Temp;Humidity;BMP_temperature;BMP_pressure;BME280_temperature;BME280_humidity;BME280_pressure;Samples;Min_cycle;Max_cycle;Signal;HPM_P1;HPM_P2
2024/02/05 11:50:36;;;;;;;;;;;;;;;3.24;100.00;97572.45;1747300;81;20138;-73
2024/02/05 11:53:02;;;;;;;;;;;;;;;3.12;100.00;97579.70;1739329;81;20167;-77
2024/02/05 12:10:39;;;;;;;;;;;;;;;2.64;100.00;97581.10;1746066;81;20103;-71
2024/02/05 12:13:06;;;;;;;;;;;;;;;2.55;100.00;97585.06;1757880;81;20144;-74
2024/02/05 12:15:36;;;;;;;;;;;;;;;2.49;100.00;97590.58;1758882;81;20152;-71
2024/02/05 12:18:01;;;;;;;;;;;;;;;2.40;100.00;97590.36;1765604;81;20097;-72
2024/02/05 12:20:29;;;;;;;;;;;;;;;2.34;100.00;97585.96;1755175;81;20443;-70
2024/02/05 12:22:57;;;;;;;;;;;;;;;2.30;100.00;97572.95;1762817;81;20145;-73
2024/02/05 12:25:24;;;;;;;;;;;;;;;2.26;100.00;97576.62;1758969;81;20206;-71
2024/02/05 12:27:53;;;;;;;;;;;;;;;2.24;100.00;97569.93;1749873;81;20109;-76
2024/02/05 12:30:20;;;;;;;;;;;;;;;2.23;100.00;97575.98;1750097;81;20114;-70
2024/02/05 12:32:54;;;;;;;;;;;;;;;2.23;100.00;97572.13;1755081;81;20099;-71
2024/02/05 12:35:23;;;;;;;;;;;;;;;2.22;100.00;97585.42;1757644;81;20162;-69
2024/02/05 12:37:53;;;;;;;;;;;;;;;2.19;100.00;97594.59;1752387;81;20140;-66
2024/02/05 12:40:21;;;;;;;;;;;;;;;2.17;100.00;97590.47;1755794;81;20409;-73
2024/02/05 12:42:47;;;;;;;;;;;;;;;2.14;100.00;97597.91;1772870;81;20383;-70
2024/02/05 12:45:15;;;;;;;;;;;;;;;2.11;100.00;97599.37;1756974;81;20295;-69
2024/02/05 12:47:42;;;;;;;;;;;;;;;2.11;100.00;97604.96;1762439;81;20104;-71
2024/02/05 12:50:09;;;;;;;;;;;;;;;2.08;100.00;97614.13;1760272;81;20115;-72
2024/02/05 12:52:35;;;;;;;;;;;;;;;2.05;100.00;97611.75;1757352;81;20394;-70
2024/02/05 12:55:03;;;;;;;;;;;;;;;2.01;100.00;97609.36;1726165;82;20103;-74
2024/02/05 12:57:30;;;;;;;;;;;;;;;1.97;100.00;97613.06;1784020;79;20106;-72
2024/02/05 12:59:57;;;;;;;;;;;;;;;1.93;100.00;97606.91;1740695;82;20432;-72
2024/02/05 13:02:23;;;;;;;;;;;;;;;1.90;100.00;97619.47;1724737;81;20145;-71
2024/02/05 13:04:50;;;;;;;;;;;;;;;1.89;100.00;97615.25;1739239;82;20162;-73
2024/02/05 13:07:19;;;;;;;;;;;;;;;1.90;100.00;97610.48;1738342;81;20131;-69
2024/02/05 13:09:48;;;;;;;;;;;;;;;1.96;100.00;97608.02;1738624;83;20102;-72
2024/02/05 13:12:16;;;;;;;;;;;;;;;2.06;100.00;97613.39;1738311;83;20127;-69
2024/02/05 13:14:43;;;;;;;;;;;;;;;2.15;100.00;97615.41;1738478;83;20405;-72
2024/02/05 13:17:09;;;;;;;;;;;;;;;2.23;100.00;97623.48;1738613;82;20106;-74
2024/02/05 13:19:36;;;;;;;;;;;;;;;2.28;100.00;97635.58;1738641;83;20131;-71
2024/02/05 13:22:04;;;;;;;;;;;;;;;2.29;100.00;97635.48;1747913;81;20107;-76
2024/02/05 13:24:31;;;;;;;;;;;;;;;2.27;100.00;97646.77;1737964;81;20107;-77
2024/02/05 13:26:57;;;;;;;;;;;;;;;2.24;100.00;97642.64;1738817;81;20098;-71
2024/02/05 13:29:24;;;;;;;;;;;;;;;2.21;100.00;97643.28;1752136;81;20159;-69
2024/02/05 13:44:20;;;;;;;;;;;;;;;1.99;100.00;97670.71;1741884;81;20377;-70
2024/02/05 13:46:46;;;;;;;;;;;;;;;1.99;100.00;97663.84;1738447;83;20151;-70
2024/02/05 13:49:12;;;;;;;;;;;;;;;2.00;100.00;97662.06;1738716;81;20111;-80
2024/02/05 13:51:39;;;;;;;;;;;;;;;2.01;100.00;97658.59;1738332;83;20100;-77
2024/02/05 13:54:06;;;;;;;;;;;;;;;2.01;100.00;97661.16;1763913;80;20095;-71
2024/02/05 13:56:33;;;;;;;;;;;;;;;1.99;100.00;97663.02;1743028;81;20142;-73
2024/02/05 13:58:59;;;;;;;;;;;;;;;1.95;100.00;97669.23;1750434;80;20121;-69
2024/02/05 14:01:25;;;;;;;;;;;;;;;1.88;100.00;97676.47;1757316;82;20117;-74
2024/02/05 14:03:51;;;;;;;;;;;;;;;1.83;100.00;97669.95;1747061;81;20131;-71
2024/02/05 14:06:17;;;;;;;;;;;;;;;1.80;100.00;97667.56;1749651;82;20133;-66
2024/02/05 14:08:44;;;;;;;;;;;;;;;1.81;100.00;97683.33;1760006;81;20167;-74
2024/02/05 14:11:10;;;;;;;;;;;;;;;1.82;100.00;97680.67;1737729;81;20223;-72
2024/02/05 14:23:33;;;;;;;;;;;;;;;1.77;100.00;97696.79;1756053;81;20118;-74
2024/02/05 14:25:59;;;;;;;;;;;;;;;1.76;100.00;97693.85;1759199;81;20097;-72
2024/02/05 14:28:25;;;;;;;;;;;;;;;1.75;100.00;97701.64;1751832;80;20285;-71
2024/02/05 14:30:52;;;;;;;;;;;;;;;1.72;100.00;97699.25;1740535;80;20111;-74
2024/02/05 14:33:18;;;;;;;;;;;;;;;1.68;100.00;97705.01;1741153;82;20150;-74
2024/02/05 14:35:44;;;;;;;;;;;;;;;1.66;100.00;97697.41;1741117;82;20111;-74
2024/02/05 14:38:10;;;;;;;;;;;;;;;1.66;100.00;97696.58;1728393;82;20393;-67
2024/02/05 14:40:36;;;;;;;;;;;;;;;1.65;100.00;97691.91;1748744;81;20090;-73
2024/02/05 14:43:04;;;;;;;;;;;;;;;1.68;100.00;97696.03;1749024;81;20141;-79
2024/02/05 14:45:30;;;;;;;;;;;;;;;1.67;100.00;97692.64;1741298;82;20421;-77
2024/02/05 14:47:56;;;;;;;;;;;;;;;1.68;100.00;97692.19;1741041;81;20135;-75
2024/02/05 14:50:22;;;;;;;;;;;;;;;1.67;100.00;97694.38;1746986;81;20122;-75
2024/02/05 14:52:49;;;;;;;;;;;;;;;1.65;100.00;97697.48;1751610;81;20174;-72
2024/02/05 14:55:15;;;;;;;;;;;;;;;1.62;100.00;97698.95;1741099;82;20119;-70
2024/02/05 14:57:41;;;;;;;;;;;;;;;1.61;100.00;97703.25;1741330;82;20112;-68
2024/02/05 15:00:09;;;;;;;;;;;;;;;1.60;100.00;97693.11;1741217;82;20103;-69
2024/02/05 15:02:36;;;;;;;;;;;;;;;1.59;100.00;97707.67;1740677;82;20190;-67
2024/02/05 15:05:04;;;;;;;;;;;;;;;1.57;100.00;97706.93;1739717;82;20091;-71
2024/02/05 15:07:30;;;;;;;;;;;;;;;1.57;100.00;97710.78;1740434;82;20138;-68
2024/02/05 15:09:56;;;;;;;;;;;;;;;1.56;100.00;97722.41;1741123;82;20139;-67
